• Join FlightAware (Why Join?)
  • Login
  • US Flag 
03:36PM EDT


 

Airport Tracker/Info


-or-


 

Live Flight TrackerFlight Track Log ✈ N53585 ✈ 05-May-2014 ✈ KADS - KPRX

Flight Track Log - Related Links

Times and Time Zones

All times are in EDT time to prevent confusion due to time zone crossing. See the N53585 flight status page for this flight to view local times or setup timezone preferences in your user account.

Time Position Orientation Groundspeed Altitude Reporting Facility
EDT Latitude Longitude Course Direction KTS MPH feet Rate Location/Type
09:41AM 32.9667 -96.8333 90° East 63 72 900  Level Dallas / Fort Worth TRACON
09:42AM 32.9667 -96.8167 90° East 96 110 1,300 420 Climbing Dallas / Fort Worth TRACON
09:43AM 32.9839 -96.7986 41° Northeast 109 125 1,700 300 Climbing Fort Worth Center
09:44AM 33.0131 -96.7750 34° Northeast 126 145 1,900 420 Climbing Fort Worth Center
09:45AM 33.0403 -96.7456 42° Northeast 133 153 2,600 600 Climbing Fort Worth Center
09:46AM 33.0656 -96.7167 44° Northeast 120 138 3,200 420 Climbing Fort Worth Center
09:47AM 33.0906 -96.6897 42° Northeast 120 138 3,500 300 Climbing Fort Worth Center
09:48AM 33.1194 -96.6569 44° Northeast 130 150 3,900 480 Climbing Fort Worth Center
09:49AM 33.1428 -96.6286 45° Northeast 121 139 4,500 300 Climbing Fort Worth Center
09:50AM 33.1700 -96.5969 44° Northeast 135 155 4,600 300 Climbing Fort Worth Center
09:51AM 33.1958 -96.5672 44° Northeast 122 140 5,200 420 Climbing Fort Worth Center
09:52AM 33.2172 -96.5397 47° Northeast 117 135 5,500 120 Climbing Fort Worth Center
09:53AM 33.2464 -96.5069 43° Northeast 132 152 5,500  Level Fort Worth Center
09:54AM 33.2742 -96.4767 42° Northeast 133 153 5,500  Level Fort Worth Center
09:55AM 33.3028 -96.4461 42° Northeast 135 155 5,500  Level Fort Worth Center
09:56AM 33.3336 -96.4131 42° Northeast 135 155 5,500  Level Fort Worth Center
09:57AM 33.3619 -96.3825 42° Northeast 135 155 5,500  Level Fort Worth Center
09:58AM 33.3922 -96.3492 43° Northeast 136 157 5,500  Level Fort Worth Center
09:59AM 33.4194 -96.3183 43° Northeast 136 157 5,500  Level Fort Worth Center
10:00AM 33.4442 -96.2811 51° Northeast 135 155 5,500  Level Fort Worth Center
10:01AM 33.4575 -96.2375 70° East 135 155 5,500  Level Fort Worth Center
10:02AM 33.4714 -96.1969 68° East 135 155 5,500  Level Fort Worth Center
10:03AM 33.4864 -96.1522 68° East 135 155 5,500  Level Fort Worth Center
10:04AM 33.5003 -96.1106 68° East 134 154 5,500  Level Fort Worth Center
10:05AM 33.5153 -96.0669 68° East 134 154 5,500  Level Fort Worth Center
10:06AM 33.5233 -96.0244 77° East 133 153 5,500  Level Fort Worth Center
10:07AM 33.5306 -95.9789 79° East 131 151 5,500  Level Fort Worth Center
10:08AM 33.5386 -95.9361 77° East 128 147 5,500  Level Fort Worth Center
10:09AM 33.5450 -95.8925 80° East 132 152 5,500  Level Fort Worth Center
10:11AM 33.5528 -95.8456 79° East 132 152 5,500  Level Fort Worth Center
10:12AM 33.5611 -95.8053 76° East 131 151 5,500  Level Fort Worth Center
10:13AM 33.5692 -95.7617 77° East 132 152 5,500  Level Fort Worth Center
10:14AM 33.5792 -95.7200 74° East 131 151 5,500 -60 Level Fort Worth Center
10:15AM 33.5900 -95.6775 73° East 132 152 5,400 -300 Descending Fort Worth Center
10:16AM 33.6039 -95.6247 72° East 133 153 4,900 -480 Descending Fort Worth Center